sensor_id;sensor_type;location;lat;lon;timestamp;P1;durP1;ratioP1;P2;durP2;ratioP2
59338;SDS011;45117;50.960;5.500;2022-11-11T00:00:48;8.52;;;3.13;;
59338;SDS011;45117;50.960;5.500;2022-11-11T00:03:14;7.18;;;3.10;;
59338;SDS011;45117;50.960;5.500;2022-11-11T00:05:41;6.78;;;2.97;;
59338;SDS011;45117;50.960;5.500;2022-11-11T00:08:08;10.00;;;3.15;;
59338;SDS011;45117;50.960;5.500;2022-11-11T00:10:35;7.10;;;3.03;;
59338;SDS011;45117;50.960;5.500;2022-11-11T00:13:02;5.80;;;2.80;;
59338;SDS011;45117;50.960;5.500;2022-11-11T00:15:30;8.73;;;3.13;;
59338;SDS011;45117;50.960;5.500;2022-11-11T00:17:57;8.30;;;3.17;;
59338;SDS011;45117;50.960;5.500;2022-11-11T00:20:41;14.90;;;3.65;;
59338;SDS011;45117;50.960;5.500;2022-11-11T00:23:25;8.43;;;3.05;;
59338;SDS011;45117;50.960;5.500;2022-11-11T00:26:13;4.55;;;2.80;;
59338;SDS011;45117;50.960;5.500;2022-11-11T00:28:40;7.20;;;3.47;;
59338;SDS011;45117;50.960;5.500;2022-11-11T00:31:07;8.27;;;3.58;;
59338;SDS011;45117;50.960;5.500;2022-11-11T00:33:35;8.43;;;3.38;;
59338;SDS011;45117;50.960;5.500;2022-11-11T00:36:02;4.90;;;2.83;;
59338;SDS011;45117;50.960;5.500;2022-11-11T00:38:28;9.35;;;3.58;;
59338;SDS011;45117;50.960;5.500;2022-11-11T00:41:10;8.02;;;3.50;;
59338;SDS011;45117;50.960;5.500;2022-11-11T00:43:39;11.98;;;3.65;;
59338;SDS011;45117;50.960;5.500;2022-11-11T00:46:05;10.80;;;3.50;;
59338;SDS011;45117;50.960;5.500;2022-11-11T00:48:49;7.65;;;3.20;;
59338;SDS011;45117;50.960;5.500;2022-11-11T00:51:33;8.48;;;3.15;;
59338;SDS011;45117;50.960;5.500;2022-11-11T00:53:59;6.93;;;4.05;;
59338;SDS011;45117;50.960;5.500;2022-11-11T00:56:26;9.43;;;3.50;;
59338;SDS011;45117;50.960;5.500;2022-11-11T00:58:54;8.00;;;4.00;;
59338;SDS011;45117;50.960;5.500;2022-11-11T01:01:21;9.35;;;3.80;;
59338;SDS011;45117;50.960;5.500;2022-11-11T01:03:48;10.18;;;4.00;;
59338;SDS011;45117;50.960;5.500;2022-11-11T01:06:14;9.68;;;4.03;;
59338;SDS011;45117;50.960;5.500;2022-11-11T01:08:41;6.18;;;3.65;;
59338;SDS011;45117;50.960;5.500;2022-11-11T01:11:11;10.20;;;4.00;;
59338;SDS011;45117;50.960;5.500;2022-11-11T01:13:39;8.57;;;3.85;;
59338;SDS011;45117;50.960;5.500;2022-11-11T01:16:09;9.73;;;3.88;;
59338;SDS011;45117;50.960;5.500;2022-11-11T01:18:38;6.07;;;3.67;;
59338;SDS011;45117;50.960;5.500;2022-11-11T01:21:05;8.02;;;4.07;;
59338;SDS011;45117;50.960;5.500;2022-11-11T01:23:34;11.05;;;4.72;;
59338;SDS011;45117;50.960;5.500;2022-11-11T01:26:03;12.55;;;4.32;;
59338;SDS011;45117;50.960;5.500;2022-11-11T01:28:31;9.52;;;3.80;;
59338;SDS011;45117;50.960;5.500;2022-11-11T01:31:01;10.90;;;4.35;;
59338;SDS011;45117;50.960;5.500;2022-11-11T01:33:30;10.95;;;4.35;;
59338;SDS011;45117;50.960;5.500;2022-11-11T01:36:01;9.63;;;3.85;;
59338;SDS011;45117;50.960;5.500;2022-11-11T01:38:29;9.23;;;4.10;;
59338;SDS011;45117;50.960;5.500;2022-11-11T01:40:55;9.98;;;4.05;;
59338;SDS011;45117;50.960;5.500;2022-11-11T01:43:22;9.93;;;4.07;;
59338;SDS011;45117;50.960;5.500;2022-11-11T01:45:51;10.32;;;4.25;;
59338;SDS011;45117;50.960;5.500;2022-11-11T01:48:25;7.63;;;4.50;;
59338;SDS011;45117;50.960;5.500;2022-11-11T01:51:15;8.75;;;4.25;;
59338;SDS011;45117;50.960;5.500;2022-11-11T01:53:46;10.88;;;4.30;;
59338;SDS011;45117;50.960;5.500;2022-11-11T01:56:16;9.88;;;4.47;;
59338;SDS011;45117;50.960;5.500;2022-11-11T01:58:44;12.77;;;4.72;;
59338;SDS011;45117;50.960;5.500;2022-11-11T02:01:10;8.32;;;4.15;;
59338;SDS011;45117;50.960;5.500;2022-11-11T02:03:38;9.23;;;4.22;;
59338;SDS011;45117;50.960;5.500;2022-11-11T02:06:05;11.30;;;4.80;;
59338;SDS011;45117;50.960;5.500;2022-11-11T02:08:34;10.88;;;4.47;;
59338;SDS011;45117;50.960;5.500;2022-11-11T02:11:03;10.45;;;4.32;;
59338;SDS011;45117;50.960;5.500;2022-11-11T02:13:32;10.52;;;4.72;;
59338;SDS011;45117;50.960;5.500;2022-11-11T02:16:20;8.18;;;4.15;;
59338;SDS011;45117;50.960;5.500;2022-11-11T02:18:46;10.80;;;4.25;;
59338;SDS011;45117;50.960;5.500;2022-11-11T02:21:13;9.43;;;4.25;;
59338;SDS011;45117;50.960;5.500;2022-11-11T02:26:19;9.48;;;4.53;;
59338;SDS011;45117;50.960;5.500;2022-11-11T02:28:47;11.45;;;5.03;;
59338;SDS011;45117;50.960;5.500;2022-11-11T02:31:15;8.32;;;4.70;;
59338;SDS011;45117;50.960;5.500;2022-11-11T02:33:41;8.65;;;4.57;;
59338;SDS011;45117;50.960;5.500;2022-11-11T02:36:08;9.80;;;4.60;;
59338;SDS011;45117;50.960;5.500;2022-11-11T02:38:39;9.25;;;4.50;;
59338;SDS011;45117;50.960;5.500;2022-11-11T02:41:07;11.40;;;5.30;;
59338;SDS011;45117;50.960;5.500;2022-11-11T02:43:51;11.52;;;5.00;;
59338;SDS011;45117;50.960;5.500;2022-11-11T02:46:18;10.13;;;4.88;;
59338;SDS011;45117;50.960;5.500;2022-11-11T02:48:44;10.65;;;5.03;;
59338;SDS011;45117;50.960;5.500;2022-11-11T02:51:11;12.15;;;5.38;;
59338;SDS011;45117;50.960;5.500;2022-11-11T02:53:37;11.88;;;5.00;;
59338;SDS011;45117;50.960;5.500;2022-11-11T02:56:04;12.13;;;5.05;;
59338;SDS011;45117;50.960;5.500;2022-11-11T02:58:32;12.23;;;5.47;;
59338;SDS011;45117;50.960;5.500;2022-11-11T03:00:59;12.25;;;5.07;;
59338;SDS011;45117;50.960;5.500;2022-11-11T03:03:25;10.98;;;5.18;;
59338;SDS011;45117;50.960;5.500;2022-11-11T03:05:52;10.40;;;4.72;;
59338;SDS011;45117;50.960;5.500;2022-11-11T03:08:18;11.93;;;4.63;;
59338;SDS011;45117;50.960;5.500;2022-11-11T03:10:45;10.50;;;4.88;;
59338;SDS011;45117;50.960;5.500;2022-11-11T03:13:12;14.00;;;5.35;;
59338;SDS011;45117;50.960;5.500;2022-11-11T03:15:40;14.55;;;5.50;;
59338;SDS011;45117;50.960;5.500;2022-11-11T03:18:07;13.93;;;5.55;;
59338;SDS011;45117;50.960;5.500;2022-11-11T03:20:32;13.02;;;5.75;;
59338;SDS011;45117;50.960;5.500;2022-11-11T03:23:16;11.65;;;5.70;;
59338;SDS011;45117;50.960;5.500;2022-11-11T03:25:44;11.38;;;5.65;;
59338;SDS011;45117;50.960;5.500;2022-11-11T03:28:12;10.40;;;5.55;;
59338;SDS011;45117;50.960;5.500;2022-11-11T03:30:41;14.65;;;5.70;;
59338;SDS011;45117;50.960;5.500;2022-11-11T03:33:09;11.35;;;5.28;;
59338;SDS011;45117;50.960;5.500;2022-11-11T03:35:36;16.10;;;5.93;;
59338;SDS011;45117;50.960;5.500;2022-11-11T03:38:03;12.48;;;5.90;;
59338;SDS011;45117;50.960;5.500;2022-11-11T03:40:49;10.68;;;5.10;;
59338;SDS011;45117;50.960;5.500;2022-11-11T03:43:17;11.65;;;5.22;;
59338;SDS011;45117;50.960;5.500;2022-11-11T03:45:46;14.50;;;5.68;;
59338;SDS011;45117;50.960;5.500;2022-11-11T03:48:13;16.45;;;5.90;;
59338;SDS011;45117;50.960;5.500;2022-11-11T03:50:40;13.32;;;4.95;;
59338;SDS011;45117;50.960;5.500;2022-11-11T03:53:07;12.45;;;5.25;;
59338;SDS011;45117;50.960;5.500;2022-11-11T03:55:33;9.73;;;4.50;;
59338;SDS011;45117;50.960;5.500;2022-11-11T03:58:00;10.23;;;5.07;;
59338;SDS011;45117;50.960;5.500;2022-11-11T04:00:27;11.85;;;5.15;;
59338;SDS011;45117;50.960;5.500;2022-11-11T04:03:01;10.93;;;4.72;;
59338;SDS011;45117;50.960;5.500;2022-11-11T04:05:46;11.80;;;5.15;;
59338;SDS011;45117;50.960;5.500;2022-11-11T04:08:41;12.48;;;5.53;;
59338;SDS011;45117;50.960;5.500;2022-11-11T04:11:22;12.73;;;5.65;;
59338;SDS011;45117;50.960;5.500;2022-11-11T04:13:50;15.05;;;5.70;;
59338;SDS011;45117;50.960;5.500;2022-11-11T04:16:35;12.80;;;5.07;;
59338;SDS011;45117;50.960;5.500;2022-11-11T04:19:03;10.18;;;5.20;;
59338;SDS011;45117;50.960;5.500;2022-11-11T04:21:47;14.30;;;5.15;;
59338;SDS011;45117;50.960;5.500;2022-11-11T04:24:15;13.20;;;5.63;;
59338;SDS011;45117;50.960;5.500;2022-11-11T04:27:01;8.60;;;4.78;;
59338;SDS011;45117;50.960;5.500;2022-11-11T04:29:29;10.15;;;4.97;;
59338;SDS011;45117;50.960;5.500;2022-11-11T04:31:55;10.25;;;4.97;;
59338;SDS011;45117;50.960;5.500;2022-11-11T04:34:42;13.18;;;5.00;;
59338;SDS011;45117;50.960;5.500;2022-11-11T04:37:10;8.52;;;4.28;;
59338;SDS011;45117;50.960;5.500;2022-11-11T04:39:37;11.50;;;5.05;;
59338;SDS011;45117;50.960;5.500;2022-11-11T04:42:21;9.50;;;4.80;;
59338;SDS011;45117;50.960;5.500;2022-11-11T04:44:48;11.70;;;4.35;;
59338;SDS011;45117;50.960;5.500;2022-11-11T04:47:32;12.77;;;5.03;;
59338;SDS011;45117;50.960;5.500;2022-11-11T04:50:00;11.38;;;4.60;;
59338;SDS011;45117;50.960;5.500;2022-11-11T04:52:27;10.10;;;4.30;;
59338;SDS011;45117;50.960;5.500;2022-11-11T04:54:54;11.45;;;4.65;;
59338;SDS011;45117;50.960;5.500;2022-11-11T04:57:40;9.90;;;4.47;;
59338;SDS011;45117;50.960;5.500;2022-11-11T05:00:08;11.20;;;4.82;;
59338;SDS011;45117;50.960;5.500;2022-11-11T05:02:35;10.63;;;4.57;;
59338;SDS011;45117;50.960;5.500;2022-11-11T05:05:22;13.50;;;4.65;;
59338;SDS011;45117;50.960;5.500;2022-11-11T05:07:48;9.98;;;4.50;;
59338;SDS011;45117;50.960;5.500;2022-11-11T05:10:32;12.65;;;4.97;;
59338;SDS011;45117;50.960;5.500;2022-11-11T05:12:59;8.23;;;4.85;;
59338;SDS011;45117;50.960;5.500;2022-11-11T05:15:41;9.57;;;4.55;;
59338;SDS011;45117;50.960;5.500;2022-11-11T05:18:25;8.80;;;4.35;;
59338;SDS011;45117;50.960;5.500;2022-11-11T05:21:10;11.68;;;4.63;;
59338;SDS011;45117;50.960;5.500;2022-11-11T05:23:45;10.70;;;4.40;;
59338;SDS011;45117;50.960;5.500;2022-11-11T05:26:29;15.20;;;4.40;;
59338;SDS011;45117;50.960;5.500;2022-11-11T05:28:56;9.13;;;4.05;;
59338;SDS011;45117;50.960;5.500;2022-11-11T05:31:22;11.07;;;4.75;;
59338;SDS011;45117;50.960;5.500;2022-11-11T05:33:49;15.20;;;4.57;;
59338;SDS011;45117;50.960;5.500;2022-11-11T05:36:17;13.43;;;4.50;;
59338;SDS011;45117;50.960;5.500;2022-11-11T05:38:43;10.90;;;4.60;;
59338;SDS011;45117;50.960;5.500;2022-11-11T05:41:10;9.98;;;4.75;;
59338;SDS011;45117;50.960;5.500;2022-11-11T05:43:36;8.23;;;4.13;;
59338;SDS011;45117;50.960;5.500;2022-11-11T05:46:03;11.45;;;4.90;;
59338;SDS011;45117;50.960;5.500;2022-11-11T05:48:30;11.90;;;4.50;;
59338;SDS011;45117;50.960;5.500;2022-11-11T05:50:56;15.60;;;4.53;;
59338;SDS011;45117;50.960;5.500;2022-11-11T05:53:24;13.43;;;5.18;;
59338;SDS011;45117;50.960;5.500;2022-11-11T05:55:52;10.75;;;4.65;;
59338;SDS011;45117;50.960;5.500;2022-11-11T05:58:19;10.73;;;4.53;;
59338;SDS011;45117;50.960;5.500;2022-11-11T06:00:46;12.40;;;4.68;;
59338;SDS011;45117;50.960;5.500;2022-11-11T06:03:12;13.00;;;4.90;;
59338;SDS011;45117;50.960;5.500;2022-11-11T06:05:39;12.90;;;4.40;;
59338;SDS011;45117;50.960;5.500;2022-11-11T06:08:05;10.52;;;4.65;;
59338;SDS011;45117;50.960;5.500;2022-11-11T06:10:33;10.02;;;4.35;;
59338;SDS011;45117;50.960;5.500;2022-11-11T06:12:59;10.73;;;4.68;;
59338;SDS011;45117;50.960;5.500;2022-11-11T06:15:34;12.77;;;4.55;;
59338;SDS011;45117;50.960;5.500;2022-11-11T06:18:02;11.38;;;4.90;;
59338;SDS011;45117;50.960;5.500;2022-11-11T06:20:30;11.35;;;4.32;;
59338;SDS011;45117;50.960;5.500;2022-11-11T06:22:59;11.82;;;4.82;;
59338;SDS011;45117;50.960;5.500;2022-11-11T06:25:26;14.38;;;4.60;;
59338;SDS011;45117;50.960;5.500;2022-11-11T06:28:12;12.50;;;4.35;;
59338;SDS011;45117;50.960;5.500;2022-11-11T06:30:39;8.05;;;3.75;;
59338;SDS011;45117;50.960;5.500;2022-11-11T06:33:06;8.85;;;3.95;;
59338;SDS011;45117;50.960;5.500;2022-11-11T06:35:33;12.15;;;3.85;;
59338;SDS011;45117;50.960;5.500;2022-11-11T06:38:00;15.02;;;3.85;;
59338;SDS011;45117;50.960;5.500;2022-11-11T06:40:27;9.38;;;4.47;;
59338;SDS011;45117;50.960;5.500;2022-11-11T06:42:57;12.38;;;4.60;;
59338;SDS011;45117;50.960;5.500;2022-11-11T06:45:26;12.23;;;4.18;;
59338;SDS011;45117;50.960;5.500;2022-11-11T06:47:54;7.93;;;3.97;;
59338;SDS011;45117;50.960;5.500;2022-11-11T06:50:21;9.45;;;4.43;;
59338;SDS011;45117;50.960;5.500;2022-11-11T06:52:48;8.98;;;4.50;;
59338;SDS011;45117;50.960;5.500;2022-11-11T06:55:14;12.23;;;4.45;;
59338;SDS011;45117;50.960;5.500;2022-11-11T06:57:41;8.68;;;4.40;;
59338;SDS011;45117;50.960;5.500;2022-11-11T07:00:08;8.35;;;4.03;;
59338;SDS011;45117;50.960;5.500;2022-11-11T07:02:36;12.20;;;4.43;;
59338;SDS011;45117;50.960;5.500;2022-11-11T07:05:03;13.35;;;4.78;;
59338;SDS011;45117;50.960;5.500;2022-11-11T07:07:30;12.27;;;4.80;;
59338;SDS011;45117;50.960;5.500;2022-11-11T07:09:56;8.60;;;4.25;;
59338;SDS011;45117;50.960;5.500;2022-11-11T07:12:23;8.63;;;3.95;;
59338;SDS011;45117;50.960;5.500;2022-11-11T07:14:50;12.23;;;4.22;;
59338;SDS011;45117;50.960;5.500;2022-11-11T07:17:16;10.20;;;4.30;;
59338;SDS011;45117;50.960;5.500;2022-11-11T07:19:44;10.05;;;4.35;;
59338;SDS011;45117;50.960;5.500;2022-11-11T07:22:11;13.35;;;4.60;;
59338;SDS011;45117;50.960;5.500;2022-11-11T07:24:37;11.02;;;4.35;;
59338;SDS011;45117;50.960;5.500;2022-11-11T07:27:04;8.75;;;3.83;;
59338;SDS011;45117;50.960;5.500;2022-11-11T07:29:30;7.18;;;3.53;;
59338;SDS011;45117;50.960;5.500;2022-11-11T07:31:57;8.63;;;3.95;;
59338;SDS011;45117;50.960;5.500;2022-11-11T07:34:23;11.02;;;4.03;;
59338;SDS011;45117;50.960;5.500;2022-11-11T07:36:51;8.50;;;3.63;;
59338;SDS011;45117;50.960;5.500;2022-11-11T07:39:18;12.25;;;4.00;;
59338;SDS011;45117;50.960;5.500;2022-11-11T07:41:44;10.60;;;3.80;;
59338;SDS011;45117;50.960;5.500;2022-11-11T07:44:11;10.75;;;3.95;;
59338;SDS011;45117;50.960;5.500;2022-11-11T07:46:38;10.73;;;3.67;;
59338;SDS011;45117;50.960;5.500;2022-11-11T07:49:04;11.68;;;3.40;;
59338;SDS011;45117;50.960;5.500;2022-11-11T07:51:31;6.43;;;3.30;;
59338;SDS011;45117;50.960;5.500;2022-11-11T07:53:58;6.60;;;2.78;;
59338;SDS011;45117;50.960;5.500;2022-11-11T07:56:25;8.48;;;4.22;;
59338;SDS011;45117;50.960;5.500;2022-11-11T07:58:51;7.93;;;3.75;;
59338;SDS011;45117;50.960;5.500;2022-11-11T08:01:18;8.05;;;3.42;;
59338;SDS011;45117;50.960;5.500;2022-11-11T08:03:44;6.68;;;3.40;;
59338;SDS011;45117;50.960;5.500;2022-11-11T08:06:14;8.95;;;3.33;;
59338;SDS011;45117;50.960;5.500;2022-11-11T08:08:41;7.90;;;3.20;;
59338;SDS011;45117;50.960;5.500;2022-11-11T08:11:09;6.43;;;3.22;;
59338;SDS011;45117;50.960;5.500;2022-11-11T08:13:36;5.47;;;2.80;;
59338;SDS011;45117;50.960;5.500;2022-11-11T08:16:04;9.30;;;3.13;;
59338;SDS011;45117;50.960;5.500;2022-11-11T08:18:31;9.15;;;3.20;;
59338;SDS011;45117;50.960;5.500;2022-11-11T08:20:58;9.10;;;3.30;;
59338;SDS011;45117;50.960;5.500;2022-11-11T08:23:25;7.75;;;3.00;;
59338;SDS011;45117;50.960;5.500;2022-11-11T08:25:57;6.72;;;2.90;;
59338;SDS011;45117;50.960;5.500;2022-11-11T08:28:25;6.55;;;2.75;;
59338;SDS011;45117;50.960;5.500;2022-11-11T08:30:52;7.05;;;2.80;;
59338;SDS011;45117;50.960;5.500;2022-11-11T08:33:19;7.35;;;2.40;;
59338;SDS011;45117;50.960;5.500;2022-11-11T08:35:46;6.10;;;2.72;;
59338;SDS011;45117;50.960;5.500;2022-11-11T08:38:13;7.70;;;2.95;;
59338;SDS011;45117;50.960;5.500;2022-11-11T08:40:39;5.97;;;2.63;;
59338;SDS011;45117;50.960;5.500;2022-11-11T08:43:06;6.22;;;2.50;;
59338;SDS011;45117;50.960;5.500;2022-11-11T08:45:33;6.15;;;2.40;;
59338;SDS011;45117;50.960;5.500;2022-11-11T08:48:00;8.05;;;2.50;;
59338;SDS011;45117;50.960;5.500;2022-11-11T08:50:26;7.40;;;2.10;;
59338;SDS011;45117;50.960;5.500;2022-11-11T08:52:53;5.90;;;2.50;;
59338;SDS011;45117;50.960;5.500;2022-11-11T08:55:19;5.03;;;2.10;;
59338;SDS011;45117;50.960;5.500;2022-11-11T08:57:46;8.25;;;2.30;;
59338;SDS011;45117;50.960;5.500;2022-11-11T09:00:13;6.97;;;2.20;;
59338;SDS011;45117;50.960;5.500;2022-11-11T09:02:41;5.97;;;2.30;;
59338;SDS011;45117;50.960;5.500;2022-11-11T09:05:08;5.50;;;2.05;;
59338;SDS011;45117;50.960;5.500;2022-11-11T09:07:34;3.72;;;2.10;;
59338;SDS011;45117;50.960;5.500;2022-11-11T09:10:01;6.20;;;2.13;;
59338;SDS011;45117;50.960;5.500;2022-11-11T09:12:28;4.55;;;1.90;;
59338;SDS011;45117;50.960;5.500;2022-11-11T09:14:54;4.57;;;1.92;;
59338;SDS011;45117;50.960;5.500;2022-11-11T09:17:20;3.38;;;1.98;;
59338;SDS011;45117;50.960;5.500;2022-11-11T09:19:48;3.10;;;1.95;;
59338;SDS011;45117;50.960;5.500;2022-11-11T09:22:15;5.05;;;1.80;;
59338;SDS011;45117;50.960;5.500;2022-11-11T09:24:41;2.25;;;1.50;;
59338;SDS011;45117;50.960;5.500;2022-11-11T09:27:08;4.65;;;1.90;;
59338;SDS011;45117;50.960;5.500;2022-11-11T09:29:35;5.97;;;1.75;;
59338;SDS011;45117;50.960;5.500;2022-11-11T09:32:02;7.32;;;1.70;;
59338;SDS011;45117;50.960;5.500;2022-11-11T09:34:29;3.20;;;1.45;;
59338;SDS011;45117;50.960;5.500;2022-11-11T09:36:56;3.03;;;1.60;;
59338;SDS011;45117;50.960;5.500;2022-11-11T09:39:23;3.42;;;1.58;;
59338;SDS011;45117;50.960;5.500;2022-11-11T09:41:51;3.67;;;1.92;;
59338;SDS011;45117;50.960;5.500;2022-11-11T09:44:28;3.05;;;1.35;;
59338;SDS011;45117;50.960;5.500;2022-11-11T09:47:08;4.47;;;1.60;;
59338;SDS011;45117;50.960;5.500;2022-11-11T09:49:52;3.80;;;1.52;;
59338;SDS011;45117;50.960;5.500;2022-11-11T09:52:28;3.63;;;1.52;;
59338;SDS011;45117;50.960;5.500;2022-11-11T09:54:58;3.20;;;1.30;;
59338;SDS011;45117;50.960;5.500;2022-11-11T09:57:30;3.17;;;1.40;;
59338;SDS011;45117;50.960;5.500;2022-11-11T10:00:01;3.42;;;1.20;;
59338;SDS011;45117;50.960;5.500;2022-11-11T10:02:33;3.03;;;1.60;;
59338;SDS011;45117;50.960;5.500;2022-11-11T10:05:07;3.15;;;1.35;;
59338;SDS011;45117;50.960;5.500;2022-11-11T10:07:40;4.63;;;1.50;;
59338;SDS011;45117;50.960;5.500;2022-11-11T10:10:13;2.83;;;1.10;;
59338;SDS011;45117;50.960;5.500;2022-11-11T10:12:48;5.03;;;1.27;;
59338;SDS011;45117;50.960;5.500;2022-11-11T10:15:19;3.72;;;1.20;;
59338;SDS011;45117;50.960;5.500;2022-11-11T10:17:54;1.75;;;1.20;;
59338;SDS011;45117;50.960;5.500;2022-11-11T10:20:31;2.53;;;1.30;;
59338;SDS011;45117;50.960;5.500;2022-11-11T10:23:04;1.65;;;1.15;;
59338;SDS011;45117;50.960;5.500;2022-11-11T10:25:38;3.40;;;1.48;;
59338;SDS011;45117;50.960;5.500;2022-11-11T10:28:12;3.05;;;1.45;;
59338;SDS011;45117;50.960;5.500;2022-11-11T10:30:42;3.75;;;1.33;;
59338;SDS011;45117;50.960;5.500;2022-11-11T10:33:11;4.30;;;1.30;;
59338;SDS011;45117;50.960;5.500;2022-11-11T10:35:42;2.83;;;1.27;;
59338;SDS011;45117;50.960;5.500;2022-11-11T10:38:16;2.75;;;1.25;;
59338;SDS011;45117;50.960;5.500;2022-11-11T10:40:51;2.97;;;1.27;;
59338;SDS011;45117;50.960;5.500;2022-11-11T10:43:20;2.35;;;1.00;;
59338;SDS011;45117;50.960;5.500;2022-11-11T10:45:49;3.10;;;1.20;;
59338;SDS011;45117;50.960;5.500;2022-11-11T10:48:25;2.95;;;1.30;;
59338;SDS011;45117;50.960;5.500;2022-11-11T10:51:00;1.77;;;0.85;;
59338;SDS011;45117;50.960;5.500;2022-11-11T10:53:31;3.40;;;1.20;;
59338;SDS011;45117;50.960;5.500;2022-11-11T10:56:05;4.70;;;1.40;;
59338;SDS011;45117;50.960;5.500;2022-11-11T10:58:40;2.80;;;1.20;;
59338;SDS011;45117;50.960;5.500;2022-11-11T11:01:13;3.10;;;1.33;;
59338;SDS011;45117;50.960;5.500;2022-11-11T11:03:44;7.80;;;1.45;;
59338;SDS011;45117;50.960;5.500;2022-11-11T11:06:17;2.92;;;1.10;;
59338;SDS011;45117;50.960;5.500;2022-11-11T11:08:50;3.88;;;1.20;;
59338;SDS011;45117;50.960;5.500;2022-11-11T11:11:20;4.75;;;1.60;;
59338;SDS011;45117;50.960;5.500;2022-11-11T11:13:50;3.05;;;1.50;;
59338;SDS011;45117;50.960;5.500;2022-11-11T11:16:19;3.88;;;1.40;;
59338;SDS011;45117;50.960;5.500;2022-11-11T11:21:52;5.38;;;1.55;;
59338;SDS011;45117;50.960;5.500;2022-11-11T11:24:22;4.57;;;1.45;;
59338;SDS011;45117;50.960;5.500;2022-11-11T11:26:51;4.55;;;1.90;;
59338;SDS011;45117;50.960;5.500;2022-11-11T11:29:26;5.07;;;1.70;;
59338;SDS011;45117;50.960;5.500;2022-11-11T11:31:54;5.88;;;1.70;;
59338;SDS011;45117;50.960;5.500;2022-11-11T11:34:21;3.05;;;1.30;;
59338;SDS011;45117;50.960;5.500;2022-11-11T11:37:08;4.93;;;1.48;;
59338;SDS011;45117;50.960;5.500;2022-11-11T11:39:36;4.55;;;1.48;;
59338;SDS011;45117;50.960;5.500;2022-11-11T11:42:04;7.07;;;1.70;;
59338;SDS011;45117;50.960;5.500;2022-11-11T11:44:32;8.20;;;2.50;;
59338;SDS011;45117;50.960;5.500;2022-11-11T11:47:10;5.75;;;1.70;;
59338;SDS011;45117;50.960;5.500;2022-11-11T11:49:52;3.20;;;1.92;;
59338;SDS011;45117;50.960;5.500;2022-11-11T11:52:36;4.72;;;1.70;;
59338;SDS011;45117;50.960;5.500;2022-11-11T11:55:10;4.43;;;1.73;;
59338;SDS011;45117;50.960;5.500;2022-11-11T11:57:46;3.53;;;1.50;;
59338;SDS011;45117;50.960;5.500;2022-11-11T12:00:21;4.50;;;1.50;;
59338;SDS011;45117;50.960;5.500;2022-11-11T12:05:54;3.35;;;1.65;;
59338;SDS011;45117;50.960;5.500;2022-11-11T12:08:37;10.30;;;1.77;;
59338;SDS011;45117;50.960;5.500;2022-11-11T12:11:17;4.68;;;1.80;;
59338;SDS011;45117;50.960;5.500;2022-11-11T12:13:54;3.17;;;1.88;;
59338;SDS011;45117;50.960;5.500;2022-11-11T12:16:39;4.93;;;2.10;;
59338;SDS011;45117;50.960;5.500;2022-11-11T12:19:17;3.80;;;2.05;;
59338;SDS011;45117;50.960;5.500;2022-11-11T12:21:57;4.45;;;1.70;;
59338;SDS011;45117;50.960;5.500;2022-11-11T12:24:34;3.00;;;1.70;;
59338;SDS011;45117;50.960;5.500;2022-11-11T12:27:11;5.65;;;2.05;;
59338;SDS011;45117;50.960;5.500;2022-11-11T12:29:47;6.20;;;2.15;;
59338;SDS011;45117;50.960;5.500;2022-11-11T12:32:27;4.10;;;1.83;;
59338;SDS011;45117;50.960;5.500;2022-11-11T12:35:15;5.50;;;2.00;;
59338;SDS011;45117;50.960;5.500;2022-11-11T12:37:55;5.65;;;2.45;;
59338;SDS011;45117;50.960;5.500;2022-11-11T12:40:32;3.53;;;1.80;;
59338;SDS011;45117;50.960;5.500;2022-11-11T12:43:10;4.38;;;2.10;;
59338;SDS011;45117;50.960;5.500;2022-11-11T12:45:45;3.47;;;1.83;;
59338;SDS011;45117;50.960;5.500;2022-11-11T12:48:18;5.65;;;1.90;;
59338;SDS011;45117;50.960;5.500;2022-11-11T12:50:59;2.42;;;1.45;;
59338;SDS011;45117;50.960;5.500;2022-11-11T12:53:34;5.57;;;1.58;;
59338;SDS011;45117;50.960;5.500;2022-11-11T12:56:09;3.65;;;1.98;;
59338;SDS011;45117;50.960;5.500;2022-11-11T12:58:46;4.35;;;1.80;;
59338;SDS011;45117;50.960;5.500;2022-11-11T13:01:19;2.30;;;1.50;;
59338;SDS011;45117;50.960;5.500;2022-11-11T13:03:58;3.67;;;1.23;;
59338;SDS011;45117;50.960;5.500;2022-11-11T13:06:37;2.88;;;1.60;;
59338;SDS011;45117;50.960;5.500;2022-11-11T13:09:26;3.15;;;1.75;;
59338;SDS011;45117;50.960;5.500;2022-11-11T13:12:01;4.28;;;1.50;;
59338;SDS011;45117;50.960;5.500;2022-11-11T13:14:47;3.33;;;1.40;;
59338;SDS011;45117;50.960;5.500;2022-11-11T13:17:19;5.15;;;1.48;;
59338;SDS011;45117;50.960;5.500;2022-11-11T13:19:47;2.92;;;1.27;;
59338;SDS011;45117;50.960;5.500;2022-11-11T13:22:20;3.45;;;1.60;;
59338;SDS011;45117;50.960;5.500;2022-11-11T13:24:48;4.30;;;1.48;;
59338;SDS011;45117;50.960;5.500;2022-11-11T13:27:18;4.60;;;1.65;;
59338;SDS011;45117;50.960;5.500;2022-11-11T13:30:06;4.82;;;1.50;;
59338;SDS011;45117;50.960;5.500;2022-11-11T13:32:46;2.50;;;1.40;;
59338;SDS011;45117;50.960;5.500;2022-11-11T13:35:18;4.55;;;1.60;;
59338;SDS011;45117;50.960;5.500;2022-11-11T13:37:48;3.63;;;1.50;;
59338;SDS011;45117;50.960;5.500;2022-11-11T13:40:31;6.68;;;1.83;;
59338;SDS011;45117;50.960;5.500;2022-11-11T13:43:00;3.20;;;1.60;;
59338;SDS011;45117;50.960;5.500;2022-11-11T13:45:31;3.25;;;1.60;;
59338;SDS011;45117;50.960;5.500;2022-11-11T13:48:00;2.97;;;1.27;;
59338;SDS011;45117;50.960;5.500;2022-11-11T13:50:29;2.90;;;2.10;;
59338;SDS011;45117;50.960;5.500;2022-11-11T13:52:59;5.05;;;1.75;;
59338;SDS011;45117;50.960;5.500;2022-11-11T13:55:29;5.20;;;1.80;;
59338;SDS011;45117;50.960;5.500;2022-11-11T13:57:58;3.58;;;1.42;;
59338;SDS011;45117;50.960;5.500;2022-11-11T14:00:27;4.25;;;1.60;;
59338;SDS011;45117;50.960;5.500;2022-11-11T14:15:08;2.85;;;1.38;;
59338;SDS011;45117;50.960;5.500;2022-11-11T14:18:09;4.40;;;2.10;;
59338;SDS011;45117;50.960;5.500;2022-11-11T14:20:56;3.72;;;1.77;;
59338;SDS011;45117;50.960;5.500;2022-11-11T14:23:23;3.67;;;1.80;;
59338;SDS011;45117;50.960;5.500;2022-11-11T14:26:18;3.70;;;1.65;;
59338;SDS011;45117;50.960;5.500;2022-11-11T14:28:56;5.07;;;2.42;;
59338;SDS011;45117;50.960;5.500;2022-11-11T14:34:32;5.15;;;2.00;;
59338;SDS011;45117;50.960;5.500;2022-11-11T14:37:21;4.10;;;2.40;;
59338;SDS011;45117;50.960;5.500;2022-11-11T14:39:55;4.68;;;2.33;;
59338;SDS011;45117;50.960;5.500;2022-11-11T14:42:41;5.28;;;2.80;;
59338;SDS011;45117;50.960;5.500;2022-11-11T14:54:21;3.97;;;2.60;;
59338;SDS011;45117;50.960;5.500;2022-11-11T14:56:57;5.72;;;2.88;;
59338;SDS011;45117;50.960;5.500;2022-11-11T14:59:27;4.05;;;2.40;;
59338;SDS011;45117;50.960;5.500;2022-11-11T15:01:55;4.55;;;2.15;;
59338;SDS011;45117;50.960;5.500;2022-11-11T15:04:26;4.88;;;1.90;;
59338;SDS011;45117;50.960;5.500;2022-11-11T15:06:55;5.75;;;2.15;;
59338;SDS011;45117;50.960;5.500;2022-11-11T15:12:24;5.38;;;2.25;;
59338;SDS011;45117;50.960;5.500;2022-11-11T15:14:58;3.95;;;1.75;;
59338;SDS011;45117;50.960;5.500;2022-11-11T15:17:36;4.30;;;1.80;;
59338;SDS011;45117;50.960;5.500;2022-11-11T15:20:21;3.40;;;2.10;;
59338;SDS011;45117;50.960;5.500;2022-11-11T15:22:55;2.75;;;1.95;;
59338;SDS011;45117;50.960;5.500;2022-11-11T15:25:29;4.45;;;2.20;;
59338;SDS011;45117;50.960;5.500;2022-11-11T15:28:03;5.85;;;2.38;;
59338;SDS011;45117;50.960;5.500;2022-11-11T15:30:42;3.72;;;2.10;;
59338;SDS011;45117;50.960;5.500;2022-11-11T15:33:17;3.70;;;2.22;;
59338;SDS011;45117;50.960;5.500;2022-11-11T15:35:54;5.32;;;2.75;;
59338;SDS011;45117;50.960;5.500;2022-11-11T15:38:25;5.50;;;3.30;;
59338;SDS011;45117;50.960;5.500;2022-11-11T15:40:54;7.50;;;3.90;;
59338;SDS011;45117;50.960;5.500;2022-11-11T15:43:24;7.32;;;3.67;;